createdAt,value
2017-12-31T00:01:22.962Z,8.92
2017-12-31T00:03:50.346Z,8.80
2017-12-31T00:06:17.730Z,8.98
2017-12-31T00:08:45.122Z,8.96
2017-12-31T00:11:12.509Z,8.92
2017-12-31T00:13:39.895Z,8.96
2017-12-31T00:16:07.290Z,8.84
2017-12-31T00:18:35.489Z,8.96
2017-12-31T00:21:02.878Z,8.65
2017-12-31T00:23:30.262Z,8.76
2017-12-31T00:25:57.659Z,8.84
2017-12-31T00:28:25.054Z,8.76
2017-12-31T00:30:52.553Z,8.68
2017-12-31T00:33:19.946Z,8.61
2017-12-31T00:35:47.374Z,8.66
2017-12-31T00:38:14.762Z,8.62
2017-12-31T00:40:42.137Z,8.45
2017-12-31T00:43:09.526Z,8.51
2017-12-31T00:45:36.923Z,8.62
2017-12-31T00:48:04.306Z,8.69
2017-12-31T00:50:31.703Z,8.54
2017-12-31T00:52:59.090Z,8.47
2017-12-31T00:55:26.534Z,8.68
2017-12-31T00:57:53.919Z,8.74
2017-12-31T01:00:21.326Z,8.72
2017-12-31T01:02:48.714Z,8.65
2017-12-31T01:05:16.106Z,8.60
2017-12-31T01:07:43.499Z,8.63
2017-12-31T01:10:10.959Z,8.72
2017-12-31T01:12:38.354Z,8.69
2017-12-31T01:15:05.747Z,8.82
2017-12-31T01:17:33.138Z,8.79
2017-12-31T01:20:00.534Z,8.75
2017-12-31T01:22:27.921Z,8.73
2017-12-31T01:24:55.316Z,8.80
2017-12-31T01:27:22.699Z,8.92
2017-12-31T01:29:50.299Z,8.96
2017-12-31T01:32:17.678Z,8.81
2017-12-31T01:34:45.123Z,8.76
2017-12-31T01:37:12.508Z,8.82
2017-12-31T01:39:40.070Z,9.01
2017-12-31T01:42:07.458Z,8.99
2017-12-31T01:44:34.851Z,9.09
2017-12-31T01:47:02.282Z,9.01
2017-12-31T01:49:29.674Z,9.02
2017-12-31T01:51:57.057Z,9.14
2017-12-31T01:54:24.451Z,9.15
2017-12-31T01:56:51.841Z,9.21
2017-12-31T01:59:19.266Z,9.22
2017-12-31T02:01:46.658Z,9.10
2017-12-31T02:04:14.046Z,9.25
2017-12-31T02:06:41.461Z,9.51
2017-12-31T02:09:08.806Z,9.54
2017-12-31T02:11:36.204Z,9.58
2017-12-31T02:14:03.593Z,9.28
2017-12-31T02:16:30.992Z,9.36
2017-12-31T02:18:58.408Z,9.34
2017-12-31T02:21:25.801Z,9.37
2017-12-31T02:23:53.187Z,9.37
2017-12-31T02:26:20.579Z,9.35
2017-12-31T02:28:48.006Z,9.30
2017-12-31T02:31:15.398Z,9.19
2017-12-31T02:33:42.785Z,9.16
2017-12-31T02:36:10.174Z,9.06
2017-12-31T02:38:37.567Z,9.18
2017-12-31T02:41:04.977Z,8.96
2017-12-31T02:43:32.364Z,9.00
2017-12-31T02:45:59.763Z,9.12
2017-12-31T02:48:27.147Z,9.06
2017-12-31T02:50:54.538Z,9.06
2017-12-31T02:53:21.925Z,9.06
2017-12-31T02:55:49.324Z,9.04
2017-12-31T02:58:16.706Z,9.05
2017-12-31T03:00:44.107Z,9.04
2017-12-31T03:03:11.487Z,8.96
2017-12-31T03:05:38.882Z,9.12
2017-12-31T03:08:06.265Z,9.12
2017-12-31T03:10:33.738Z,9.16
2017-12-31T03:13:01.124Z,9.20
2017-12-31T03:15:28.531Z,9.33
2017-12-31T03:17:55.915Z,9.19
2017-12-31T03:20:23.310Z,9.31
2017-12-31T03:22:50.729Z,9.26
2017-12-31T03:25:18.102Z,9.15
2017-12-31T03:27:45.497Z,9.16
2017-12-31T03:30:12.888Z,9.24
2017-12-31T03:32:40.274Z,9.23
2017-12-31T03:35:08.666Z,9.19
2017-12-31T03:37:36.052Z,9.19
2017-12-31T03:40:03.474Z,9.16
2017-12-31T03:42:30.861Z,9.15
2017-12-31T03:44:58.351Z,9.33
2017-12-31T03:47:25.791Z,9.33
2017-12-31T03:49:53.182Z,9.51
2017-12-31T03:52:20.617Z,9.52
2017-12-31T03:54:48.005Z,9.61
2017-12-31T03:57:15.410Z,9.49
2017-12-31T03:59:42.801Z,9.51
2017-12-31T04:02:10.226Z,9.59
2017-12-31T04:04:37.622Z,9.63
2017-12-31T04:07:05.002Z,9.65
2017-12-31T04:09:32.410Z,9.73
2017-12-31T04:12:00.163Z,9.86
2017-12-31T04:14:27.558Z,9.80
2017-12-31T04:16:54.946Z,9.65
2017-12-31T04:19:22.351Z,9.74
2017-12-31T04:21:50.178Z,9.93
2017-12-31T04:24:17.570Z,9.89
2017-12-31T04:26:44.966Z,9.93
2017-12-31T04:29:12.387Z,9.99
2017-12-31T04:31:39.802Z,9.95
2017-12-31T04:34:07.192Z,10.04
2017-12-31T04:36:34.603Z,10.15
2017-12-31T04:39:02.074Z,10.27
2017-12-31T04:41:29.526Z,10.40
2017-12-31T04:43:56.922Z,10.25
2017-12-31T04:46:24.317Z,10.11
2017-12-31T04:48:51.710Z,10.04
2017-12-31T04:51:19.097Z,10.11
2017-12-31T04:53:46.486Z,10.07
2017-12-31T04:56:13.889Z,9.87
2017-12-31T04:58:41.285Z,9.90
2017-12-31T05:01:08.685Z,9.98
2017-12-31T05:03:36.097Z,9.97
2017-12-31T05:06:03.499Z,9.96
2017-12-31T05:08:30.918Z,10.06
2017-12-31T05:10:58.310Z,10.17
2017-12-31T05:13:25.713Z,10.16
2017-12-31T05:15:53.175Z,10.24
2017-12-31T05:18:20.567Z,10.15
2017-12-31T05:20:47.955Z,9.99
2017-12-31T05:23:15.352Z,10.04
2017-12-31T05:25:42.752Z,10.01
2017-12-31T05:28:10.156Z,10.04
2017-12-31T05:30:37.542Z,10.06
2017-12-31T05:33:04.931Z,9.95
2017-12-31T05:35:32.352Z,9.88
2017-12-31T05:37:59.738Z,9.93
2017-12-31T05:40:27.138Z,9.95
2017-12-31T05:42:54.526Z,9.90
2017-12-31T05:45:21.922Z,9.80
2017-12-31T05:47:49.313Z,9.76
2017-12-31T05:50:16.730Z,9.83
2017-12-31T05:52:44.202Z,9.82
2017-12-31T05:55:11.594Z,9.80
2017-12-31T05:57:38.986Z,9.81
2017-12-31T06:00:06.385Z,9.75
2017-12-31T06:02:33.822Z,9.50
2017-12-31T06:05:01.217Z,9.71
2017-12-31T06:07:28.599Z,9.69
2017-12-31T06:09:55.993Z,9.80
2017-12-31T06:12:23.395Z,9.69
2017-12-31T06:14:50.786Z,9.82
2017-12-31T06:17:18.182Z,9.89
2017-12-31T06:19:45.571Z,9.78
2017-12-31T06:22:12.979Z,9.91
2017-12-31T06:24:40.356Z,9.87
2017-12-31T06:27:07.746Z,9.95
2017-12-31T06:29:35.946Z,10.08
2017-12-31T06:32:03.372Z,10.02
2017-12-31T06:34:30.860Z,10.01
2017-12-31T06:36:58.246Z,9.96
2017-12-31T06:39:25.638Z,9.94
2017-12-31T06:41:53.028Z,9.84
2017-12-31T06:44:20.415Z,9.80
2017-12-31T06:46:47.802Z,9.81
2017-12-31T06:49:15.190Z,9.86
2017-12-31T06:51:42.584Z,9.51
2017-12-31T06:54:09.966Z,9.68
2017-12-31T06:56:37.390Z,9.68
2017-12-31T06:59:04.778Z,9.68
2017-12-31T07:01:32.178Z,9.69
2017-12-31T07:03:59.564Z,9.73
2017-12-31T07:06:26.959Z,9.80
2017-12-31T07:08:54.347Z,9.77
2017-12-31T07:11:21.752Z,9.89
2017-12-31T07:13:49.142Z,10.05
2017-12-31T07:16:16.538Z,10.24
2017-12-31T07:18:43.922Z,10.26
2017-12-31T07:21:11.327Z,10.14
2017-12-31T07:23:38.764Z,10.10
2017-12-31T07:26:06.166Z,10.04
2017-12-31T07:28:33.564Z,10.00
2017-12-31T07:31:01.045Z,10.14
2017-12-31T07:33:28.434Z,10.01
2017-12-31T07:35:55.844Z,9.87
2017-12-31T07:38:23.229Z,9.90
2017-12-31T07:40:50.620Z,9.79
2017-12-31T07:43:18.009Z,9.77
2017-12-31T07:45:45.404Z,9.86
2017-12-31T07:48:12.808Z,9.53
2017-12-31T07:50:40.186Z,9.52
2017-12-31T07:53:07.587Z,9.70
2017-12-31T07:55:35.086Z,9.60
2017-12-31T07:58:02.467Z,9.62
2017-12-31T08:00:29.862Z,9.32
2017-12-31T08:02:57.352Z,9.32
2017-12-31T08:05:24.734Z,9.37
2017-12-31T08:07:52.122Z,9.48
2017-12-31T08:10:19.624Z,9.44
2017-12-31T08:12:47.007Z,9.50
2017-12-31T08:15:14.402Z,9.40
2017-12-31T08:17:41.794Z,9.48
2017-12-31T08:20:09.188Z,9.62
2017-12-31T08:22:36.577Z,9.73
2017-12-31T08:25:03.966Z,9.56
2017-12-31T08:27:31.360Z,9.72
2017-12-31T08:29:58.762Z,9.71
2017-12-31T08:32:26.162Z,9.78
2017-12-31T08:34:53.555Z,9.81
2017-12-31T08:37:21.026Z,9.92
2017-12-31T08:39:48.506Z,9.85
2017-12-31T08:42:15.917Z,9.74
2017-12-31T08:44:43.327Z,9.82
2017-12-31T08:47:10.718Z,9.92
2017-12-31T08:49:38.103Z,9.92
2017-12-31T08:52:05.504Z,10.00
2017-12-31T08:54:32.890Z,10.01
2017-12-31T08:57:00.298Z,10.09
2017-12-31T08:59:27.694Z,10.14
2017-12-31T09:01:55.091Z,10.14
2017-12-31T09:04:22.484Z,10.32
2017-12-31T09:06:49.882Z,10.45
2017-12-31T09:09:17.355Z,10.31
2017-12-31T09:11:44.750Z,10.40
2017-12-31T09:14:12.161Z,10.40
2017-12-31T09:16:39.619Z,10.53
2017-12-31T09:19:07.014Z,10.69
2017-12-31T09:21:34.429Z,10.51
2017-12-31T09:24:01.806Z,10.57
2017-12-31T09:26:29.200Z,10.61
2017-12-31T09:28:56.596Z,10.54
2017-12-31T09:31:23.994Z,10.69
2017-12-31T09:33:51.378Z,10.84
2017-12-31T09:36:18.786Z,10.78
2017-12-31T09:38:46.171Z,10.77
2017-12-31T09:41:13.578Z,10.86
2017-12-31T09:43:40.962Z,10.92
2017-12-31T09:46:08.350Z,10.99
2017-12-31T09:48:35.739Z,11.09
2017-12-31T09:51:03.178Z,11.28
2017-12-31T09:53:30.704Z,11.30
2017-12-31T09:55:58.113Z,11.33
2017-12-31T09:58:25.501Z,11.40
2017-12-31T10:00:52.890Z,11.39
2017-12-31T10:03:20.294Z,11.35
2017-12-31T10:05:47.680Z,11.47
2017-12-31T10:08:15.073Z,11.48
2017-12-31T10:10:42.473Z,11.61
2017-12-31T10:13:09.870Z,11.70
2017-12-31T10:15:37.263Z,11.75
2017-12-31T10:18:04.664Z,11.79
2017-12-31T10:20:32.058Z,11.85
2017-12-31T10:22:59.477Z,11.87
2017-12-31T10:25:26.853Z,11.88
2017-12-31T10:27:54.387Z,11.92
2017-12-31T10:30:21.975Z,11.97
2017-12-31T10:32:49.378Z,11.98
2017-12-31T10:35:16.766Z,12.05
2017-12-31T10:37:44.158Z,12.07
2017-12-31T10:40:11.580Z,12.08
2017-12-31T10:42:38.958Z,12.15
2017-12-31T10:45:06.363Z,12.08
2017-12-31T10:47:33.830Z,12.13
2017-12-31T10:50:01.222Z,12.25
2017-12-31T10:52:28.614Z,12.27
2017-12-31T10:54:56.007Z,12.28
2017-12-31T10:57:23.410Z,12.19
2017-12-31T10:59:50.902Z,12.24
2017-12-31T11:02:18.296Z,12.28
2017-12-31T11:04:45.684Z,12.24
2017-12-31T11:07:13.084Z,12.22
2017-12-31T11:09:40.525Z,12.24
2017-12-31T11:12:07.934Z,12.34
2017-12-31T11:14:35.322Z,12.31
2017-12-31T11:17:02.711Z,12.22
2017-12-31T11:19:30.110Z,12.19
2017-12-31T11:21:57.607Z,12.18
2017-12-31T11:24:25.013Z,12.15
2017-12-31T11:26:52.417Z,12.28
2017-12-31T11:29:19.802Z,12.37
2017-12-31T11:31:47.198Z,12.40
2017-12-31T11:34:14.604Z,12.35
2017-12-31T11:36:41.987Z,12.37
2017-12-31T11:39:09.391Z,12.44
2017-12-31T11:41:36.770Z,12.42
2017-12-31T11:44:04.202Z,12.46
2017-12-31T11:46:31.593Z,12.49
2017-12-31T11:48:58.986Z,12.51
2017-12-31T11:51:26.388Z,12.63
2017-12-31T11:53:53.801Z,12.59
2017-12-31T11:56:21.182Z,12.60
2017-12-31T11:58:48.574Z,12.57
2017-12-31T12:01:16.014Z,12.66
2017-12-31T12:03:43.446Z,12.65
2017-12-31T12:06:10.834Z,12.68
2017-12-31T12:08:38.230Z,12.74
2017-12-31T12:11:05.629Z,12.73
2017-12-31T12:13:33.034Z,12.66
2017-12-31T12:16:00.415Z,12.69
2017-12-31T12:18:27.814Z,12.60
2017-12-31T12:20:55.195Z,12.63
2017-12-31T12:23:22.645Z,12.69
2017-12-31T12:25:50.037Z,12.70
2017-12-31T12:28:17.441Z,12.66
2017-12-31T12:30:44.914Z,12.56
2017-12-31T12:33:12.307Z,12.66
2017-12-31T12:35:39.706Z,12.79
2017-12-31T12:38:07.111Z,12.90
2017-12-31T12:40:34.486Z,12.91
2017-12-31T12:43:01.887Z,12.94
2017-12-31T12:45:29.271Z,12.89
2017-12-31T12:47:56.672Z,12.78
2017-12-31T12:50:24.058Z,12.83
2017-12-31T12:52:51.455Z,12.99
2017-12-31T12:55:18.844Z,12.86
2017-12-31T12:57:46.246Z,12.84
2017-12-31T13:00:13.681Z,12.91
2017-12-31T13:02:41.093Z,12.91
2017-12-31T13:05:08.482Z,13.01
2017-12-31T13:07:35.878Z,13.07
2017-12-31T13:10:03.270Z,13.10
2017-12-31T13:12:30.654Z,13.16
2017-12-31T13:14:58.047Z,13.16
2017-12-31T13:17:25.442Z,13.04
2017-12-31T13:19:52.847Z,13.12
2017-12-31T13:22:20.240Z,13.10
2017-12-31T13:24:47.630Z,13.23
2017-12-31T13:27:15.086Z,13.25
2017-12-31T13:29:42.545Z,13.20
2017-12-31T13:32:09.938Z,13.34
2017-12-31T13:34:37.354Z,13.34
2017-12-31T13:37:04.738Z,13.29
2017-12-31T13:39:32.142Z,13.24
2017-12-31T13:41:59.622Z,13.27
2017-12-31T13:44:27.055Z,13.19
2017-12-31T13:46:54.434Z,13.13
2017-12-31T13:49:21.832Z,13.07
2017-12-31T13:51:49.214Z,12.87
2017-12-31T13:54:16.618Z,13.05
2017-12-31T13:56:44.007Z,13.12
2017-12-31T13:59:11.399Z,13.25
2017-12-31T14:01:38.786Z,13.23
2017-12-31T14:04:06.302Z,13.24
2017-12-31T14:06:33.798Z,13.11
2017-12-31T14:09:01.236Z,13.24
2017-12-31T14:11:28.631Z,13.10
2017-12-31T14:13:56.036Z,13.07
2017-12-31T14:16:23.439Z,13.05
2017-12-31T14:18:50.834Z,12.97
2017-12-31T14:21:18.215Z,12.93
2017-12-31T14:23:45.672Z,13.08
2017-12-31T14:26:13.064Z,13.03
2017-12-31T14:28:40.455Z,13.03
2017-12-31T14:31:07.859Z,12.80
2017-12-31T14:33:35.254Z,12.78
2017-12-31T14:36:02.646Z,12.66
2017-12-31T14:41:03.906Z,12.64
2017-12-31T14:43:31.308Z,12.56
2017-12-31T14:45:58.698Z,12.55
2017-12-31T14:48:26.178Z,12.53
2017-12-31T14:50:53.562Z,12.54
2017-12-31T14:53:20.958Z,12.47
2017-12-31T14:55:48.362Z,12.43
2017-12-31T14:58:15.836Z,12.44
2017-12-31T15:00:43.266Z,12.41
2017-12-31T15:03:10.662Z,12.48
2017-12-31T15:05:38.061Z,12.55
2017-12-31T15:08:05.461Z,12.50
2017-12-31T15:10:32.873Z,12.46
2017-12-31T15:13:00.274Z,12.52
2017-12-31T15:15:27.670Z,12.39
2017-12-31T15:17:55.060Z,12.32
2017-12-31T15:20:22.467Z,12.26
2017-12-31T15:22:49.853Z,12.40
2017-12-31T15:25:17.246Z,12.44
2017-12-31T15:27:44.639Z,12.38
2017-12-31T15:30:12.069Z,12.40
2017-12-31T15:32:39.450Z,12.20
2017-12-31T15:35:06.983Z,12.19
2017-12-31T15:37:34.371Z,12.33
2017-12-31T15:40:01.766Z,12.34
2017-12-31T15:42:29.155Z,12.28
2017-12-31T15:44:56.558Z,12.29
2017-12-31T15:47:23.954Z,12.24
2017-12-31T15:49:51.391Z,12.40
2017-12-31T15:52:19.218Z,12.30
2017-12-31T15:54:46.609Z,12.29
2017-12-31T15:57:13.998Z,12.23
2017-12-31T15:59:41.389Z,12.25
2017-12-31T16:02:08.880Z,12.40
2017-12-31T16:04:36.271Z,12.41
2017-12-31T16:07:03.666Z,12.40
2017-12-31T16:09:31.060Z,12.39
2017-12-31T16:11:58.445Z,12.34
2017-12-31T16:14:25.848Z,12.34
2017-12-31T16:16:53.234Z,12.39
2017-12-31T16:19:20.613Z,12.32
2017-12-31T16:21:48.038Z,12.18
2017-12-31T16:24:15.415Z,12.27
2017-12-31T16:26:42.802Z,12.25
2017-12-31T16:29:10.199Z,12.33
2017-12-31T16:31:37.595Z,12.40
2017-12-31T16:34:05.114Z,12.33
2017-12-31T16:36:32.482Z,12.30
2017-12-31T16:38:59.882Z,12.34
2017-12-31T16:41:27.278Z,12.37
2017-12-31T16:43:54.663Z,12.51
2017-12-31T16:46:22.145Z,12.41
2017-12-31T16:48:49.543Z,12.47
2017-12-31T16:51:16.974Z,12.49
2017-12-31T16:53:44.465Z,12.49
2017-12-31T16:56:11.814Z,12.50
2017-12-31T16:58:39.194Z,12.47
2017-12-31T17:01:06.601Z,12.42
2017-12-31T17:03:33.993Z,12.42
2017-12-31T17:06:01.411Z,12.43
2017-12-31T17:08:28.966Z,12.36
2017-12-31T17:10:56.356Z,12.42
2017-12-31T17:13:23.763Z,12.38
2017-12-31T17:15:51.154Z,12.33
2017-12-31T17:18:18.561Z,12.31
2017-12-31T17:20:45.953Z,12.33
2017-12-31T17:23:13.334Z,12.33
2017-12-31T17:25:40.838Z,12.38
2017-12-31T17:28:08.230Z,12.29
2017-12-31T17:30:35.630Z,12.31
2017-12-31T17:33:03.019Z,12.31
2017-12-31T17:35:30.402Z,12.29
2017-12-31T17:37:57.799Z,12.28
2017-12-31T17:40:25.195Z,12.36
2017-12-31T17:42:52.583Z,12.13
2017-12-31T17:45:19.982Z,12.08
2017-12-31T17:47:47.374Z,12.19
2017-12-31T17:50:14.783Z,12.06
2017-12-31T17:52:42.168Z,12.05
2017-12-31T17:55:09.562Z,11.96
2017-12-31T17:57:36.962Z,12.00
2017-12-31T18:00:04.354Z,12.03
2017-12-31T18:02:31.750Z,12.05
2017-12-31T18:04:59.138Z,12.07
2017-12-31T18:07:26.518Z,12.07
2017-12-31T18:09:53.915Z,12.05
2017-12-31T18:12:21.310Z,12.04
2017-12-31T18:14:48.710Z,12.10
2017-12-31T18:17:16.108Z,12.23
2017-12-31T18:19:43.498Z,12.16
2017-12-31T18:22:10.890Z,12.32
2017-12-31T18:24:38.320Z,12.36
2017-12-31T18:27:05.723Z,12.30
2017-12-31T18:29:33.118Z,12.22
2017-12-31T18:32:00.523Z,12.16
2017-12-31T18:34:27.928Z,12.14
2017-12-31T18:36:55.306Z,12.30
2017-12-31T18:39:22.706Z,12.27
2017-12-31T18:41:50.154Z,12.20
2017-12-31T18:44:17.538Z,12.16
2017-12-31T18:46:44.930Z,12.06
2017-12-31T18:49:12.333Z,12.13
2017-12-31T18:51:39.741Z,12.21
2017-12-31T18:54:07.118Z,12.15
2017-12-31T18:56:34.521Z,12.19
2017-12-31T18:59:01.939Z,12.19
2017-12-31T19:01:29.347Z,12.25
2017-12-31T19:03:56.731Z,12.28
2017-12-31T19:06:24.213Z,12.21
2017-12-31T19:08:51.594Z,12.09
2017-12-31T19:11:18.989Z,12.10
2017-12-31T19:13:46.390Z,12.26
2017-12-31T19:16:13.792Z,12.20
2017-12-31T19:18:41.186Z,12.38
2017-12-31T19:21:08.579Z,12.26
2017-12-31T19:23:35.970Z,12.03
2017-12-31T19:26:03.371Z,12.10
2017-12-31T19:28:30.758Z,12.07
2017-12-31T19:30:58.158Z,12.00
2017-12-31T19:33:25.589Z,11.96
2017-12-31T19:35:52.973Z,11.96
2017-12-31T19:38:20.372Z,11.93
2017-12-31T19:40:47.765Z,11.89
2017-12-31T19:43:15.162Z,12.04
2017-12-31T19:45:42.558Z,11.89
2017-12-31T19:48:09.977Z,11.97
2017-12-31T19:50:37.420Z,11.99
2017-12-31T19:53:04.789Z,12.08
2017-12-31T19:55:33.226Z,11.90
2017-12-31T19:58:00.614Z,11.91
2017-12-31T20:00:28.003Z,11.67
2017-12-31T20:02:55.401Z,11.69
2017-12-31T20:05:22.794Z,11.78
2017-12-31T20:07:50.185Z,11.70
2017-12-31T20:10:17.584Z,11.84
2017-12-31T20:12:44.978Z,11.83
2017-12-31T20:15:12.389Z,11.88
2017-12-31T20:17:39.807Z,11.81
2017-12-31T20:20:07.190Z,11.90
2017-12-31T20:22:34.616Z,11.92
2017-12-31T20:25:02.011Z,11.94
2017-12-31T20:27:29.405Z,11.87
2017-12-31T20:29:56.786Z,11.95
2017-12-31T20:32:24.294Z,12.01
2017-12-31T20:34:51.678Z,12.03
2017-12-31T20:37:19.082Z,11.76
2017-12-31T20:39:46.474Z,11.80
2017-12-31T20:42:13.866Z,11.81
2017-12-31T20:44:41.261Z,11.76
2017-12-31T20:47:08.646Z,11.85
2017-12-31T20:49:36.035Z,11.75
2017-12-31T20:52:03.430Z,11.82
2017-12-31T20:54:30.830Z,11.77
2017-12-31T20:56:58.221Z,11.64
2017-12-31T20:59:25.615Z,11.68
2017-12-31T21:01:53.002Z,11.77
2017-12-31T21:04:20.416Z,11.65
2017-12-31T21:06:47.830Z,11.64
2017-12-31T21:09:15.223Z,11.61
2017-12-31T21:11:42.607Z,11.57
2017-12-31T21:14:10.001Z,11.45
2017-12-31T21:16:37.383Z,11.42
2017-12-31T21:19:04.778Z,11.47
2017-12-31T21:21:32.180Z,11.34
2017-12-31T21:23:59.555Z,11.40
2017-12-31T21:26:26.942Z,11.29
2017-12-31T21:28:54.338Z,11.18
2017-12-31T21:31:21.746Z,11.11
2017-12-31T21:33:49.140Z,11.14
2017-12-31T21:36:16.526Z,11.20
2017-12-31T21:38:43.920Z,11.14
2017-12-31T21:41:11.327Z,11.20
2017-12-31T21:43:38.729Z,11.06
2017-12-31T21:46:06.115Z,11.01
2017-12-31T21:48:33.510Z,11.09
2017-12-31T21:51:00.904Z,11.14
2017-12-31T21:53:28.286Z,11.07
2017-12-31T21:55:55.674Z,11.00
2017-12-31T21:58:23.072Z,11.01
2017-12-31T22:00:50.457Z,11.07
2017-12-31T22:03:17.854Z,11.06
2017-12-31T22:05:45.273Z,10.95
2017-12-31T22:08:12.703Z,11.01
2017-12-31T22:10:40.083Z,11.04
2017-12-31T22:13:07.482Z,11.13
2017-12-31T22:15:34.868Z,11.16
2017-12-31T22:18:02.273Z,11.10
2017-12-31T22:20:29.647Z,11.23
2017-12-31T22:22:57.028Z,11.23
2017-12-31T22:25:24.422Z,11.21
2017-12-31T22:27:51.801Z,11.18
2017-12-31T22:30:19.205Z,11.22
2017-12-31T22:32:46.589Z,11.22
2017-12-31T22:35:14.099Z,10.99
2017-12-31T22:37:41.480Z,10.99
2017-12-31T22:40:08.874Z,11.01
2017-12-31T22:42:36.262Z,10.97
2017-12-31T22:45:03.718Z,10.88
2017-12-31T22:47:31.173Z,10.99
2017-12-31T22:49:58.597Z,10.83
2017-12-31T22:52:25.982Z,10.81
2017-12-31T22:54:53.390Z,10.77
2017-12-31T22:57:20.779Z,10.68
2017-12-31T22:59:48.198Z,10.65
2017-12-31T23:02:15.584Z,10.53
2017-12-31T23:04:43.023Z,10.66
2017-12-31T23:07:10.446Z,10.36
2017-12-31T23:09:37.879Z,10.35
2017-12-31T23:12:05.284Z,10.09
2017-12-31T23:14:32.694Z,10.17
2017-12-31T23:17:00.115Z,10.29
2017-12-31T23:19:27.571Z,10.32
2017-12-31T23:21:54.953Z,10.12
2017-12-31T23:24:22.367Z,10.14
2017-12-31T23:26:49.754Z,10.12
2017-12-31T23:29:17.167Z,10.32
2017-12-31T23:31:44.562Z,10.21
2017-12-31T23:34:11.989Z,10.20
2017-12-31T23:36:40.090Z,10.31
2017-12-31T23:39:08.266Z,10.28
2017-12-31T23:41:35.658Z,10.50
2017-12-31T23:44:03.061Z,10.56
2017-12-31T23:46:30.535Z,10.62
2017-12-31T23:48:57.940Z,10.54
2017-12-31T23:51:25.379Z,10.65
2017-12-31T23:53:52.810Z,10.75
2017-12-31T23:56:20.210Z,10.68
2017-12-31T23:58:47.618Z,10.64
